Time;durP1;ratioP1;P1;durP2;ratioP2;P2;SDS_P1;SDS_P2;PMS_P1;PMS_P2;Temp;Humidity;BMP_temperature;BMP_pressure;BME280_temperature;BME280_humidity;BME280_pressure;Samples;Min_cycle;Max_cycle;Signal;HPM_P1;HPM_P2
2022/05/03 00:00:09;;;;;;;5.85;4.53;;;5.60;99.90;;;;;;5064360;28;20109;-64
2022/05/03 00:02:56;;;;;;;6.28;4.72;;;5.50;99.90;;;;;;5071748;28;20056;-63
2022/05/03 00:05:22;;;;;;;7.07;5.78;;;5.40;99.90;;;;;;5078871;28;20052;-63
2022/05/03 00:08:00;;;;;;;5.30;4.55;;;5.40;99.90;;;;;;5052251;28;20106;-63
2022/05/03 00:10:39;;;;;;;7.78;5.45;;;5.40;99.90;;;;;;5053999;28;20472;-63
2022/05/03 00:13:13;;;;;;;6.38;5.78;;;5.40;99.90;;;;;;5053329;28;20140;-63
2022/05/03 00:15:40;;;;;;;6.20;5.25;;;5.30;99.90;;;;;;5052288;28;20049;-63
2022/05/03 00:18:07;;;;;;;7.10;5.75;;;5.30;99.90;;;;;;5059975;28;20084;-64
2022/05/03 00:20:33;;;;;;;8.85;6.07;;;5.30;99.90;;;;;;5056482;28;20076;-64
2022/05/03 00:23:00;;;;;;;6.97;5.20;;;5.20;99.90;;;;;;5074337;28;20062;-63
2022/05/03 00:25:27;;;;;;;9.02;6.45;;;5.20;99.90;;;;;;5064374;28;20040;-63
2022/05/03 00:27:52;;;;;;;8.90;6.55;;;5.20;99.90;;;;;;5052552;28;20060;-63
2022/05/03 00:30:18;;;;;;;7.90;5.65;;;5.10;99.90;;;;;;5057574;28;20053;-63
2022/05/03 00:32:44;;;;;;;9.02;6.40;;;5.20;99.90;;;;;;5066857;28;20183;-64
2022/05/03 00:35:10;;;;;;;10.07;6.65;;;5.10;99.90;;;;;;5054268;28;20369;-64
2022/05/03 00:37:36;;;;;;;7.55;6.70;;;5.10;99.90;;;;;;5063237;28;20052;-63
2022/05/03 00:40:03;;;;;;;8.48;5.68;;;5.10;99.90;;;;;;5072786;28;20076;-63
2022/05/03 00:42:40;;;;;;;7.75;5.75;;;5.00;99.90;;;;;;5072542;28;20062;-63
2022/05/03 00:45:33;;;;;;;8.48;6.25;;;5.00;99.90;;;;;;5072686;28;20056;-62
2022/05/03 00:48:07;;;;;;;7.97;6.18;;;4.90;99.90;;;;;;5064070;28;20124;-65
2022/05/03 00:50:59;;;;;;;10.15;7.10;;;4.90;99.90;;;;;;5058139;28;20485;-64
2022/05/03 00:53:33;;;;;;;11.18;7.10;;;4.90;99.90;;;;;;5073790;28;20052;-62
2022/05/03 00:56:05;;;;;;;11.32;7.30;;;5.00;99.90;;;;;;5060154;28;20055;-63
2022/05/03 00:58:58;;;;;;;7.38;6.10;;;4.90;99.90;;;;;;5070029;28;20519;-64
2022/05/03 01:01:38;;;;;;;;;;;4.90;99.90;;;;;;5071114;28;20084;-63
2022/05/03 01:04:10;;;;;;;7.93;6.18;;;4.90;99.90;;;;;;5066119;28;19928;-65
2022/05/03 01:07:02;;;;;;;11.45;6.47;;;4.90;99.90;;;;;;5064849;28;20049;-63
2022/05/03 01:09:43;;;;;;;10.82;6.43;;;4.90;99.90;;;;;;5062206;28;20040;-64
2022/05/03 01:12:24;;;;;;;7.85;6.47;;;4.90;99.90;;;;;;5059040;28;20048;-64
2022/05/03 01:15:10;;;;;;;7.00;5.70;;;4.90;99.90;;;;;;5051071;28;20053;-63
2022/05/03 01:17:54;;;;;;;7.93;6.40;;;4.80;99.90;;;;;;5051658;28;20088;-64
2022/05/03 01:20:34;;;;;;;7.88;6.30;;;4.80;99.90;;;;;;5065158;28;20121;-64
2022/05/03 01:23:42;;;;;;;10.55;7.00;;;4.70;99.90;;;;;;5070941;28;20048;-63
2022/05/03 01:26:37;;;;;;;7.38;6.00;;;4.70;99.90;;;;;;5051370;28;20065;-63
2022/05/03 01:29:31;;;;;;;8.73;6.68;;;4.70;99.90;;;;;;5056931;28;20118;-64
2022/05/03 01:32:00;;;;;;;10.32;6.47;;;4.70;99.90;;;;;;5052461;28;20048;-64
2022/05/03 01:34:27;;;;;;;10.02;7.63;;;4.60;99.90;;;;;;5069267;28;20045;-65
2022/05/03 01:37:05;;;;;;;9.32;7.47;;;4.70;99.90;;;;;;5052854;28;20110;-64
2022/05/03 01:40:04;;;;;;;9.07;6.68;;;4.70;99.90;;;;;;5057387;28;20041;-64
2022/05/03 01:42:44;;;;;;;8.80;6.75;;;4.70;99.90;;;;;;5072933;28;20083;-65
2022/05/03 01:45:11;;;;;;;11.70;7.30;;;4.70;99.90;;;;;;5069765;28;20109;-65
2022/05/03 01:48:07;;;;;;;9.95;7.63;;;4.70;99.90;;;;;;5064077;28;20049;-63
2022/05/03 01:50:32;;;;;;;9.45;7.95;;;4.70;99.90;;;;;;5051144;28;20576;-64
2022/05/03 01:53:13;;;;;;;10.23;7.80;;;4.70;99.90;;;;;;5065159;28;20044;-63
2022/05/03 01:55:57;;;;;;;10.07;7.75;;;4.70;99.90;;;;;;5067993;28;20869;-64
2022/05/03 01:58:22;;;;;;;8.80;7.43;;;4.70;99.90;;;;;;5061700;28;20123;-63
2022/05/03 02:01:11;;;;;;;9.68;6.68;;;4.70;99.90;;;;;;5050321;28;20136;-64
2022/05/03 02:03:52;;;;;;;8.80;7.25;;;4.60;99.90;;;;;;5060939;28;20157;-63
2022/05/03 02:06:55;;;;;;;9.95;7.60;;;4.60;99.90;;;;;;5053283;28;20056;-65
2022/05/03 02:09:50;;;;;;;;;;;4.60;99.90;;;;;;5049925;28;20053;-63
2022/05/03 02:12:18;;;;;;;9.80;7.38;;;4.60;99.90;;;;;;5033747;28;19928;-63
2022/05/03 02:14:52;;;;;;;8.02;6.43;;;4.50;99.90;;;;;;5067371;28;20177;-65
2022/05/03 02:17:30;;;;;;;9.05;6.53;;;4.50;99.90;;;;;;5061557;28;20044;-64
2022/05/03 02:20:17;;;;;;;10.10;6.45;;;4.50;99.90;;;;;;5050467;28;20478;-62
2022/05/03 02:23:09;;;;;;;10.18;7.05;;;4.50;99.90;;;;;;5050271;28;20700;-63
2022/05/03 02:25:34;;;;;;;8.23;6.75;;;4.40;99.90;;;;;;5051279;28;20472;-65
2022/05/03 02:28:10;;;;;;;11.25;8.13;;;4.40;99.90;;;;;;5069265;28;20053;-63
2022/05/03 02:30:39;;;;;;;11.45;8.02;;;4.30;99.90;;;;;;5052206;28;20061;-64
2022/05/03 02:33:17;;;;;;;10.48;8.07;;;4.30;99.90;;;;;;5059748;28;20064;-64
2022/05/03 02:35:48;;;;;;;10.82;7.82;;;4.30;99.90;;;;;;5051059;28;20083;-63
2022/05/03 02:38:20;;;;;;;10.20;7.70;;;4.30;99.90;;;;;;5066326;28;20048;-64
2022/05/03 02:40:50;;;;;;;10.07;7.47;;;4.40;99.90;;;;;;5058128;28;20084;-63
2022/05/03 02:43:19;;;;;;;11.27;7.18;;;4.30;99.90;;;;;;5072078;28;20048;-64
2022/05/03 02:46:00;;;;;;;10.48;8.55;;;4.30;99.90;;;;;;5062336;28;20053;-64
2022/05/03 02:48:45;;;;;;;10.55;8.48;;;4.30;99.90;;;;;;5064973;28;20102;-64
2022/05/03 02:51:14;;;;;;;13.02;8.48;;;4.30;99.90;;;;;;5050782;28;20061;-63
2022/05/03 02:53:49;;;;;;;10.23;7.85;;;4.30;99.90;;;;;;5052189;28;20057;-64
2022/05/03 02:56:27;;;;;;;9.35;7.85;;;4.20;99.90;;;;;;5050597;28;20060;-65
2022/05/03 02:59:20;;;;;;;12.63;8.18;;;4.20;99.90;;;;;;5069754;28;20064;-63
2022/05/03 03:02:08;;;;;;;10.65;7.80;;;4.20;99.90;;;;;;5064428;28;20455;-65
2022/05/03 03:04:37;;;;;;;9.50;7.82;;;4.20;99.90;;;;;;5052777;28;20052;-65
2022/05/03 03:07:03;;;;;;;9.88;8.30;;;4.10;99.90;;;;;;5051808;28;20476;-65
2022/05/03 03:10:01;;;;;;;10.98;8.25;;;4.10;99.90;;;;;;5050472;28;20064;-63
2022/05/03 03:12:49;;;;;;;9.73;8.43;;;4.10;99.90;;;;;;5068582;28;20052;-64
2022/05/03 03:15:18;;;;;;;12.70;9.90;;;4.00;99.90;;;;;;5074539;28;20153;-64
2022/05/03 03:17:48;;;;;;;10.00;7.97;;;4.00;99.90;;;;;;5058623;28;20076;-65
2022/05/03 03:20:17;;;;;;;12.25;8.68;;;4.00;99.90;;;;;;5059739;28;20493;-63
2022/05/03 03:22:44;;;;;;;10.90;8.05;;;4.00;99.90;;;;;;5054177;28;20063;-64
2022/05/03 03:25:12;;;;;;;11.38;9.57;;;4.00;99.90;;;;;;5054807;28;20524;-64
2022/05/03 03:27:39;;;;;;;11.38;8.98;;;3.90;99.90;;;;;;5055408;28;20057;-64
2022/05/03 03:30:10;;;;;;;12.77;8.95;;;3.90;99.90;;;;;;5063126;28;20056;-65
2022/05/03 03:32:39;;;;;;;12.52;9.07;;;3.90;99.90;;;;;;5056169;28;20052;-65
2022/05/03 03:35:05;;;;;;;10.63;7.97;;;4.00;99.90;;;;;;5067039;28;20056;-64
2022/05/03 03:37:35;;;;;;;12.63;9.15;;;3.90;99.90;;;;;;5073747;28;20064;-64
2022/05/03 03:40:03;;;;;;;10.98;8.20;;;3.90;99.90;;;;;;5066291;28;20037;-64
2022/05/03 03:42:29;;;;;;;10.95;8.93;;;3.90;99.90;;;;;;5066448;28;20074;-64
2022/05/03 03:45:07;;;;;;;12.70;8.73;;;3.90;99.90;;;;;;5062170;28;20075;-64
2022/05/03 03:47:32;;;;;;;10.48;8.18;;;3.80;99.90;;;;;;5069404;28;20072;-64
2022/05/03 03:49:59;;;;;;;13.85;9.50;;;3.80;99.90;;;;;;5063498;28;20081;-64
2022/05/03 03:52:25;;;;;;;11.85;9.30;;;3.80;99.90;;;;;;5053288;28;20059;-63
2022/05/03 03:54:52;;;;;;;10.90;8.77;;;3.80;99.90;;;;;;5061240;28;20499;-64
2022/05/03 03:57:20;;;;;;;11.00;8.30;;;3.80;99.90;;;;;;5060681;28;20088;-64
2022/05/03 03:59:47;;;;;;;10.23;8.98;;;3.80;99.90;;;;;;5060758;28;20350;-63
2022/05/03 04:02:13;;;;;;;12.80;8.40;;;3.80;99.90;;;;;;5070475;28;20060;-64
2022/05/03 04:04:42;;;;;;;11.15;8.60;;;3.80;99.90;;;;;;5071808;28;20397;-63
2022/05/03 04:07:07;;;;;;;12.07;9.68;;;3.80;99.90;;;;;;5071592;28;20393;-64
2022/05/03 04:09:33;;;;;;;17.23;9.82;;;3.80;99.90;;;;;;5056380;28;20060;-64
2022/05/03 04:12:01;;;;;;;11.95;9.93;;;3.90;99.90;;;;;;5054927;28;20140;-64
2022/05/03 04:14:26;;;;;;;11.45;10.02;;;4.00;99.90;;;;;;5065033;28;20105;-65
2022/05/03 04:16:52;;;;;;;12.02;10.00;;;4.10;99.90;;;;;;5073174;28;20072;-64
2022/05/03 04:19:17;;;;;;;15.15;10.35;;;4.10;99.90;;;;;;5069532;28;20083;-64
2022/05/03 04:21:43;;;;;;;13.70;10.45;;;4.20;99.90;;;;;;5061541;28;20149;-64
2022/05/03 04:24:09;;;;;;;15.43;12.30;;;4.30;99.90;;;;;;5057974;28;20053;-63
2022/05/03 04:26:35;;;;;;;14.23;11.05;;;4.40;99.90;;;;;;5067679;28;20056;-64
2022/05/03 04:29:03;;;;;;;14.75;11.13;;;4.50;99.90;;;;;;5061626;28;20138;-64
2022/05/03 04:31:30;;;;;;;13.60;10.65;;;4.60;99.90;;;;;;5052149;28;20241;-64
2022/05/03 04:33:57;;;;;;;12.95;10.45;;;4.60;99.90;;;;;;5052913;28;20056;-64
2022/05/03 04:36:25;;;;;;;14.55;10.88;;;4.70;99.90;;;;;;5052854;28;20557;-64
2022/05/03 04:38:51;;;;;;;13.52;11.30;;;4.80;99.90;;;;;;5069607;28;20044;-64
2022/05/03 04:41:17;;;;;;;13.68;10.70;;;4.90;99.90;;;;;;5072274;28;20062;-64
2022/05/03 04:43:43;;;;;;;14.75;10.85;;;4.90;99.90;;;;;;5064598;28;20131;-64
2022/05/03 04:46:09;;;;;;;13.63;9.98;;;5.00;99.90;;;;;;5053013;28;20049;-64
2022/05/03 04:48:34;;;;;;;12.65;10.18;;;5.10;99.90;;;;;;5052904;28;20560;-65
2022/05/03 04:51:00;;;;;;;16.02;11.43;;;5.20;99.90;;;;;;5058429;28;20194;-65
2022/05/03 04:53:26;;;;;;;12.18;10.65;;;5.30;99.90;;;;;;5057481;28;20059;-63
2022/05/03 04:55:51;;;;;;;14.60;11.45;;;5.40;99.90;;;;;;5070954;28;20049;-64
2022/05/03 04:58:17;;;;;;;15.52;11.35;;;5.40;99.90;;;;;;5072002;28;20053;-64
2022/05/03 05:00:42;;;;;;;12.95;10.43;;;5.50;99.90;;;;;;5067885;28;20063;-63
2022/05/03 05:03:08;;;;;;;14.40;11.02;;;5.60;99.90;;;;;;5053398;28;20045;-64
2022/05/03 05:05:34;;;;;;;10.55;9.20;;;5.60;99.90;;;;;;5067966;28;20382;-64
2022/05/03 05:08:07;;;;;;;12.82;11.02;;;5.70;99.90;;;;;;5071161;28;20048;-65
2022/05/03 05:10:34;;;;;;;19.23;16.85;;;5.80;99.90;;;;;;5057935;28;20065;-64
2022/05/03 05:13:00;;;;;;;17.80;13.73;;;5.80;99.90;;;;;;5072316;28;20040;-64
2022/05/03 05:15:27;;;;;;;12.90;11.32;;;5.80;99.90;;;;;;5070726;28;20116;-64
2022/05/03 05:17:54;;;;;;;11.93;10.63;;;5.90;99.90;;;;;;5060775;28;20057;-64
2022/05/03 05:20:20;;;;;;;12.02;10.32;;;5.90;99.90;;;;;;5058674;28;20064;-65
2022/05/03 05:22:47;;;;;;;16.55;13.20;;;5.90;99.90;;;;;;5064562;28;20048;-63
2022/05/03 05:25:13;;;;;;;13.95;12.48;;;6.00;99.90;;;;;;5060344;28;20457;-66
2022/05/03 05:27:39;;;;;;;12.57;11.27;;;6.10;99.90;;;;;;5052358;28;20056;-64
2022/05/03 05:30:06;;;;;;;12.48;10.93;;;6.40;99.90;;;;;;5065630;28;20151;-64
2022/05/03 05:32:36;;;;;;;14.18;11.27;;;6.60;99.90;;;;;;5061955;28;20095;-64
2022/05/03 05:35:04;;;;;;;16.88;14.02;;;6.90;99.90;;;;;;5067406;28;20048;-63
2022/05/03 05:37:30;;;;;;;21.88;14.75;;;6.90;99.90;;;;;;5068112;28;20439;-64
2022/05/03 05:39:55;;;;;;;15.90;13.65;;;7.00;99.90;;;;;;5071310;28;20139;-63
2022/05/03 05:42:21;;;;;;;18.73;13.15;;;7.10;99.90;;;;;;5071414;28;20140;-64
2022/05/03 05:44:46;;;;;;;15.27;13.63;;;7.20;99.90;;;;;;5071738;28;20060;-66
2022/05/03 05:47:13;;;;;;;14.88;13.20;;;7.30;99.90;;;;;;5071156;28;20088;-64
2022/05/03 05:49:39;;;;;;;15.95;12.55;;;7.40;99.90;;;;;;5071777;28;20059;-66
2022/05/03 05:54:49;;;;;;;14.90;13.10;;;7.70;99.90;;;;;;5051460;28;20485;-64
2022/05/03 05:57:15;;;;;;;15.93;13.15;;;7.90;99.90;;;;;;5051182;28;20052;-64
2022/05/03 05:59:41;;;;;;;14.48;12.98;;;8.00;99.90;;;;;;5052523;28;20489;-66
2022/05/03 06:02:06;;;;;;;16.10;13.43;;;8.10;99.90;;;;;;5049852;28;20075;-65
2022/05/03 06:04:33;;;;;;;16.38;14.02;;;8.20;99.90;;;;;;5051722;28;20198;-65
2022/05/03 06:06:59;;;;;;;17.27;14.40;;;8.30;99.90;;;;;;5056403;28;20045;-64
2022/05/03 06:09:24;;;;;;;15.23;13.63;;;8.40;99.90;;;;;;5067756;28;20049;-63
2022/05/03 06:11:50;;;;;;;18.13;14.68;;;8.50;99.90;;;;;;5071687;28;20079;-64
2022/05/03 06:14:15;;;;;;;20.65;16.55;;;8.60;99.90;;;;;;5071276;28;20481;-65
2022/05/03 06:16:52;;;;;;;19.50;16.35;;;8.70;99.90;;;;;;5062001;28;20074;-64
2022/05/03 06:19:18;;;;;;;18.25;15.88;;;8.80;99.90;;;;;;5062518;28;20056;-63
2022/05/03 06:21:43;;;;;;;21.23;17.00;;;8.90;99.90;;;;;;5067079;28;20068;-64
2022/05/03 06:24:09;;;;;;;18.95;16.42;;;8.90;99.90;;;;;;5071017;28;20132;-65
2022/05/03 06:26:35;;;;;;;25.02;18.00;;;9.00;99.90;;;;;;5053919;28;20040;-66
2022/05/03 06:29:02;;;;;;;22.25;16.73;;;9.20;99.90;;;;;;5056876;28;20045;-64
2022/05/03 06:31:28;;;;;;;26.58;19.02;;;9.30;99.90;;;;;;5051499;28;20148;-64
2022/05/03 06:33:55;;;;;;;28.25;20.67;;;9.40;99.90;;;;;;5051337;28;20347;-64
2022/05/03 06:36:21;;;;;;;26.10;19.80;;;9.50;99.90;;;;;;5051131;28;20049;-65
2022/05/03 06:38:47;;;;;;;24.35;18.42;;;9.60;99.90;;;;;;5057626;28;20052;-65
2022/05/03 06:41:13;;;;;;;26.40;19.63;;;9.70;99.90;;;;;;5071162;28;20055;-65
2022/05/03 06:43:39;;;;;;;27.48;19.77;;;9.80;99.90;;;;;;5059675;28;20439;-64
2022/05/03 06:46:04;;;;;;;27.85;19.95;;;9.70;99.90;;;;;;5051560;28;20052;-62
2022/05/03 06:48:30;;;;;;;28.38;19.83;;;9.80;99.90;;;;;;5055110;28;20052;-63
2022/05/03 06:50:55;;;;;;;30.08;19.85;;;9.80;99.90;;;;;;5054609;28;20045;-62
2022/05/03 06:53:21;;;;;;;32.72;21.40;;;9.90;99.90;;;;;;5055625;28;20048;-62
2022/05/03 06:55:46;;;;;;;28.58;21.13;;;10.00;99.90;;;;;;5056070;28;20223;-61
2022/05/03 06:58:13;;;;;;;28.42;20.85;;;10.00;99.90;;;;;;5054192;28;20106;-62
2022/05/03 07:00:39;;;;;;;29.92;20.45;;;10.00;99.90;;;;;;5074333;28;20056;-64
2022/05/03 07:03:06;;;;;;;29.73;21.13;;;10.00;99.90;;;;;;5055366;28;20508;-62
2022/05/03 07:05:31;;;;;;;31.98;22.00;;;10.00;99.90;;;;;;5055844;28;20048;-63
2022/05/03 07:07:57;;;;;;;34.85;22.85;;;10.00;99.90;;;;;;5054130;28;20115;-62
2022/05/03 07:10:23;;;;;;;37.05;23.63;;;10.10;99.90;;;;;;5054542;28;20056;-62
2022/05/03 07:12:49;;;;;;;30.65;22.08;;;10.10;99.90;;;;;;5056383;28;20386;-61
2022/05/03 07:15:15;;;;;;;33.08;20.65;;;10.10;99.90;;;;;;5073196;28;20123;-62
2022/05/03 07:23:11;;;;;;;37.15;23.77;;;10.20;99.90;;;;;;5054389;28;20204;-63
2022/05/03 07:25:38;;;;;;;37.40;24.02;;;10.20;99.90;;;;;;5053804;28;20382;-62
2022/05/03 07:28:04;;;;;;;41.72;24.65;;;10.20;99.90;;;;;;5054142;28;20053;-64
2022/05/03 07:30:30;;;;;;;41.78;26.02;;;10.20;99.90;;;;;;5053291;28;20136;-63
2022/05/03 07:32:56;;;;;;;54.03;27.17;;;10.20;99.90;;;;;;5053675;28;20434;-65
2022/05/03 07:35:22;;;;;;;57.40;29.33;;;10.10;99.90;;;;;;5065437;28;20052;-64
2022/05/03 07:37:50;;;;;;;61.72;28.77;;;10.20;99.90;;;;;;5073347;28;20378;-66
2022/05/03 07:40:15;;;;;;;60.42;28.95;;;10.10;99.90;;;;;;5074046;28;20448;-65
2022/05/03 07:42:41;;;;;;;58.03;29.45;;;10.10;99.90;;;;;;5073899;28;20076;-64
2022/05/03 07:45:07;;;;;;;49.78;27.40;;;10.10;99.90;;;;;;5073539;28;20388;-65
2022/05/03 07:47:33;;;;;;;57.30;27.98;;;10.00;99.90;;;;;;5074108;28;20124;-64
2022/05/03 07:49:59;;;;;;;52.95;27.67;;;10.10;99.90;;;;;;5070813;28;20374;-65
2022/05/03 07:52:25;;;;;;;47.92;27.75;;;10.10;99.90;;;;;;5073970;28;20128;-65
2022/05/03 07:54:50;;;;;;;47.42;24.40;;;10.10;99.90;;;;;;5073491;28;20060;-65
2022/05/03 07:57:16;;;;;;;47.45;26.60;;;10.10;99.90;;;;;;5061637;28;20057;-66
2022/05/03 07:59:41;;;;;;;51.70;26.80;;;10.00;99.90;;;;;;5053717;28;20055;-66
2022/05/03 08:02:07;;;;;;;51.75;26.60;;;10.00;99.90;;;;;;5052868;28;20060;-63
2022/05/03 08:04:33;;;;;;;44.47;23.83;;;10.10;99.90;;;;;;5054560;28;20052;-64
2022/05/03 08:06:59;;;;;;;41.17;23.27;;;10.10;99.90;;;;;;5053303;28;20098;-66
2022/05/03 08:09:25;;;;;;;40.28;23.38;;;10.10;99.90;;;;;;5053213;28;20052;-64
2022/05/03 08:11:52;;;;;;;37.55;21.90;;;10.10;99.90;;;;;;5058490;28;20048;-64
2022/05/03 08:14:17;;;;;;;35.92;21.67;;;10.10;99.90;;;;;;5059295;28;20453;-64
2022/05/03 08:16:43;;;;;;;38.47;22.25;;;10.10;99.90;;;;;;5052960;28;20115;-65
2022/05/03 08:19:08;;;;;;;39.63;22.23;;;10.10;99.90;;;;;;5053306;28;20049;-64
2022/05/03 08:21:35;;;;;;;36.25;21.83;;;10.20;99.90;;;;;;5037169;28;20054;-65
2022/05/03 08:24:01;;;;;;;35.60;20.52;;;10.20;99.90;;;;;;5054437;28;20189;-66
2022/05/03 08:26:27;;;;;;;34.63;19.63;;;10.20;99.90;;;;;;5053241;28;20060;-64
2022/05/03 08:28:53;;;;;;;35.08;19.17;;;10.20;99.90;;;;;;5057715;28;20491;-65
2022/05/03 08:31:19;;;;;;;39.63;20.33;;;10.30;99.90;;;;;;5072373;28;20053;-64
2022/05/03 08:33:44;;;;;;;28.35;17.50;;;10.30;99.90;;;;;;5070906;28;20074;-63
2022/05/03 08:36:10;;;;;;;31.38;18.05;;;10.30;99.90;;;;;;5053710;28;20045;-65
2022/05/03 08:44:04;;;;;;;25.90;15.00;;;10.50;99.90;;;;;;5059007;28;20045;-66
2022/05/03 08:46:31;;;;;;;16.48;11.55;;;10.50;99.90;;;;;;5073078;28;20449;-64
2022/05/03 08:49:04;;;;;;;19.27;11.88;;;10.60;99.90;;;;;;5072749;28;20400;-65
2022/05/03 08:51:31;;;;;;;16.88;10.40;;;10.70;99.90;;;;;;5072258;28;20074;-64
2022/05/03 08:53:59;;;;;;;16.25;8.93;;;10.80;99.90;;;;;;5072458;28;20049;-65
2022/05/03 08:56:24;;;;;;;15.05;8.20;;;10.90;99.90;;;;;;5072622;28;20052;-65
2022/05/03 08:58:51;;;;;;;15.13;7.47;;;11.00;99.90;;;;;;5068947;28;20390;-65
2022/05/03 09:01:18;;;;;;;13.88;6.65;;;11.00;99.90;;;;;;5061999;28;20074;-64
2022/05/03 09:03:44;;;;;;;10.38;6.40;;;11.00;99.90;;;;;;5072089;28;20052;-66
2022/05/03 09:06:10;;;;;;;14.40;6.03;;;11.00;99.90;;;;;;5069647;28;20059;-65
2022/05/03 09:08:37;;;;;;;13.93;6.18;;;11.00;99.90;;;;;;5063460;28;20051;-65
2022/05/03 09:11:14;;;;;;;10.27;6.05;;;11.00;99.90;;;;;;5056235;28;20148;-65
2022/05/03 09:13:40;;;;;;;11.30;5.93;;;11.10;99.90;;;;;;5071215;28;20150;-64
2022/05/03 09:16:14;;;;;;;12.23;6.03;;;11.10;99.90;;;;;;5057963;28;20061;-65
2022/05/03 09:18:40;;;;;;;6.72;5.07;;;11.20;99.90;;;;;;5063156;28;20064;-66
2022/05/03 09:24:07;;;;;;;14.88;5.75;;;11.30;99.90;;;;;;5050235;28;20061;-65
2022/05/03 09:26:33;;;;;;;12.50;6.68;;;11.40;99.90;;;;;;5064440;28;20056;-63
2022/05/03 09:29:08;;;;;;;9.35;6.40;;;11.40;99.90;;;;;;5067874;28;20052;-63
2022/05/03 09:31:48;;;;;;;8.77;5.72;;;11.40;99.90;;;;;;5070982;28;20072;-64
2022/05/03 09:34:18;;;;;;;14.60;6.13;;;11.40;99.90;;;;;;5072790;28;20480;-64
2022/05/03 09:36:48;;;;;;;13.45;6.20;;;11.40;99.90;;;;;;5065701;28;20060;-66
2022/05/03 09:39:35;;;;;;;11.32;6.13;;;11.40;99.90;;;;;;5068678;28;20071;-64
2022/05/03 09:42:12;;;;;;;11.77;6.45;;;11.30;99.90;;;;;;5054326;28;20362;-65
2022/05/03 09:44:51;;;;;;;17.08;7.10;;;11.20;99.90;;;;;;5069205;28;20459;-65
2022/05/03 09:47:19;;;;;;;12.23;6.38;;;11.20;99.90;;;;;;5070907;28;20049;-64
2022/05/03 09:49:45;;;;;;;16.55;6.88;;;11.20;99.90;;;;;;5054576;28;20055;-65
2022/05/03 09:52:30;;;;;;;14.98;6.53;;;11.10;99.90;;;;;;5071443;28;20048;-64
2022/05/03 09:55:04;;;;;;;12.25;6.85;;;11.10;99.90;;;;;;5069804;28;20116;-64
2022/05/03 09:57:32;;;;;;;14.15;6.30;;;11.00;99.90;;;;;;5066112;28;20113;-64
2022/05/03 09:59:58;;;;;;;15.13;6.68;;;11.10;99.90;;;;;;5071428;28;20132;-65
2022/05/03 10:02:27;;;;;;;16.70;6.30;;;11.20;99.90;;;;;;5072129;28;20060;-65
2022/05/03 10:04:56;;;;;;;14.98;6.28;;;11.30;99.90;;;;;;5071699;28;20136;-64
2022/05/03 10:07:22;;;;;;;13.88;6.60;;;11.40;99.90;;;;;;5057186;28;20053;-65
2022/05/03 10:09:48;;;;;;;14.77;6.32;;;11.40;99.90;;;;;;5059597;28;20060;-64
2022/05/03 10:12:15;;;;;;;16.65;6.72;;;11.50;99.90;;;;;;5058307;28;20401;-64
2022/05/03 10:14:42;;;;;;;12.60;6.10;;;11.60;99.90;;;;;;5061984;28;20528;-64
2022/05/03 10:22:45;;;;;;;16.15;5.50;;;12.00;99.90;;;;;;5059065;28;20160;-64
2022/05/03 10:25:10;;;;;;;19.58;6.32;;;12.10;99.90;;;;;;5057732;28;20469;-65
2022/05/03 10:27:56;;;;;;;15.30;6.15;;;12.20;99.90;;;;;;5063598;28;20059;-63
2022/05/03 10:30:23;;;;;;;17.98;6.40;;;12.20;99.90;;;;;;5070475;28;20053;-65
2022/05/03 10:33:19;;;;;;;13.93;5.43;;;12.30;99.90;;;;;;5058710;28;20079;-64
2022/05/03 10:35:46;;;;;;;22.95;5.85;;;12.40;99.90;;;;;;5058309;28;20084;-64
2022/05/03 10:38:12;;;;;;;18.02;5.60;;;12.50;99.90;;;;;;5068705;28;20055;-64
2022/05/03 10:40:43;;;;;;;16.75;6.38;;;12.60;99.90;;;;;;5067587;28;20052;-64
2022/05/03 10:43:33;;;;;;;16.70;5.93;;;12.60;99.90;;;;;;5057360;28;20075;-65
2022/05/03 10:46:14;;;;;;;12.23;5.55;;;12.70;99.90;;;;;;5056186;28;20057;-65
2022/05/03 10:48:41;;;;;;;17.67;5.97;;;12.80;99.90;;;;;;5062605;28;20052;-65
2022/05/03 10:51:12;;;;;;;11.45;5.50;;;12.80;99.90;;;;;;5060093;28;20063;-63
2022/05/03 10:53:40;;;;;;;16.67;6.25;;;12.80;99.90;;;;;;5059528;28;20053;-64
2022/05/03 10:56:16;;;;;;;15.00;5.47;;;12.90;99.90;;;;;;5071356;28;20048;-64
2022/05/03 10:58:43;;;;;;;16.25;5.05;;;12.90;99.90;;;;;;5057464;28;20412;-64
2022/05/03 11:01:20;;;;;;;9.73;5.03;;;12.90;99.90;;;;;;5057322;28;20397;-64
2022/05/03 11:03:51;;;;;;;12.20;5.13;;;12.80;99.90;;;;;;5058652;28;20056;-64
2022/05/03 11:06:23;;;;;;;21.77;5.25;;;12.70;99.90;;;;;;5057431;28;20401;-63
2022/05/03 11:11:44;;;;;;;8.18;4.38;;;12.90;99.90;;;;;;5062942;28;20048;-64
2022/05/03 11:14:20;;;;;;;9.63;3.88;;;13.00;99.90;;;;;;5063934;28;20139;-64
2022/05/03 11:16:47;;;;;;;9.60;3.75;;;13.00;99.90;;;;;;5057897;28;20069;-65
2022/05/03 11:19:16;;;;;;;10.57;4.35;;;13.00;99.90;;;;;;5058658;28;20063;-64
2022/05/03 11:21:43;;;;;;;9.73;3.90;;;13.00;99.90;;;;;;5058573;28;20041;-63
2022/05/03 11:24:22;;;;;;;15.10;4.10;;;13.00;99.90;;;;;;5057879;28;20045;-65
2022/05/03 11:26:50;;;;;;;11.95;4.03;;;13.10;99.90;;;;;;5070033;28;20049;-63
2022/05/03 11:29:16;;;;;;;8.10;3.72;;;13.20;99.90;;;;;;5066237;28;20053;-65
2022/05/03 11:31:50;;;;;;;12.50;3.55;;;13.30;99.90;;;;;;5061330;28;20084;-64
2022/05/03 11:34:17;;;;;;;12.55;4.32;;;13.40;99.90;;;;;;5074186;28;20057;-65
2022/05/03 11:36:46;;;;;;;7.18;3.60;;;13.50;99.90;;;;;;5075350;28;20088;-64
2022/05/03 11:39:12;;;;;;;10.07;4.30;;;13.60;99.90;;;;;;5072388;28;20115;-65
2022/05/03 11:41:39;;;;;;;10.55;4.10;;;13.60;99.90;;;;;;5072017;28;20110;-64
2022/05/03 11:44:04;;;;;;;10.10;3.97;;;13.70;99.90;;;;;;5074725;28;20128;-63
2022/05/03 11:46:30;;;;;;;10.93;4.38;;;13.80;99.90;;;;;;5073069;28;20151;-64
2022/05/03 11:48:59;;;;;;;13.50;3.88;;;13.90;99.90;;;;;;5074585;28;20053;-66
2022/05/03 11:57:12;;;;;;;10.02;4.30;;;14.10;99.90;;;;;;5071776;28;20052;-66
2022/05/03 11:59:42;;;;;;;10.20;4.20;;;14.10;99.90;;;;;;5074883;28;20048;-66
2022/05/03 12:02:19;;;;;;;10.25;3.50;;;14.20;99.90;;;;;;5073196;28;20052;-65
2022/05/03 12:05:16;;;;;;;7.53;3.35;;;14.30;99.90;;;;;;5069489;28;20492;-65
2022/05/03 12:07:57;;;;;;;7.05;3.45;;;14.50;99.90;;;;;;5054628;28;20131;-65
2022/05/03 12:10:30;;;;;;;6.50;3.60;;;14.50;99.90;;;;;;5067548;28;20051;-65
2022/05/03 12:13:14;;;;;;;10.20;3.53;;;14.50;99.90;;;;;;5072663;28;20056;-64
2022/05/03 12:15:42;;;;;;;5.93;3.10;;;14.40;99.90;;;;;;5073176;28;20457;-64
2022/05/03 12:18:31;;;;;;;9.52;3.33;;;14.40;99.90;;;;;;5073215;28;20049;-65
2022/05/03 12:21:06;;;;;;;9.55;3.53;;;14.40;99.90;;;;;;5072689;28;20102;-65
2022/05/03 12:23:38;;;;;;;5.57;2.88;;;14.40;99.90;;;;;;5074279;28;20098;-63
2022/05/03 12:26:33;;;;;;;8.65;3.47;;;14.50;99.90;;;;;;5053902;28;20067;-63
2022/05/03 12:29:00;;;;;;;7.40;3.67;;;14.50;99.90;;;;;;5053720;28;20087;-63
2022/05/03 12:31:38;;;;;;;7.72;3.00;;;14.60;99.90;;;;;;5035894;28;20049;-62
2022/05/03 12:34:09;;;;;;;5.55;2.70;;;14.70;99.90;;;;;;5054086;28;20087;-63
2022/05/03 12:36:36;;;;;;;7.97;3.17;;;14.90;99.90;;;;;;5054239;28;20056;-64
2022/05/03 12:39:15;;;;;;;7.97;3.15;;;15.00;99.90;;;;;;5052683;28;20119;-64
2022/05/03 12:41:42;;;;;;;9.75;3.40;;;15.20;99.90;;;;;;5069151;28;20547;-65
2022/05/03 12:44:10;;;;;;;8.63;3.15;;;15.30;99.90;;;;;;5057535;28;20099;-63
2022/05/03 12:46:36;;;;;;;7.25;2.90;;;15.40;99.90;;;;;;5052590;28;20405;-64
2022/05/03 12:49:09;;;;;;;8.05;2.97;;;15.40;99.90;;;;;;5069834;28;20056;-63
2022/05/03 12:51:35;;;;;;;6.78;3.03;;;15.40;99.90;;;;;;5054100;28;20121;-64
2022/05/03 12:54:03;;;;;;;6.28;2.70;;;15.30;99.60;;;;;;5052116;28;20485;-64
2022/05/03 12:59:13;;;;;;;6.90;2.95;;;15.30;99.90;;;;;;5052170;28;20065;-63
2022/05/03 13:01:39;;;;;;;6.55;2.67;;;15.20;99.90;;;;;;5053312;28;20049;-63
2022/05/03 13:04:05;;;;;;;5.88;2.40;;;15.20;99.90;;;;;;5053087;28;20072;-64
2022/05/03 13:06:30;;;;;;;4.35;2.20;;;15.30;99.50;;;;;;5052672;28;20401;-62
2022/05/03 13:08:56;;;;;;;7.47;2.83;;;15.40;98.80;;;;;;5052603;28;20143;-62
2022/05/03 13:11:22;;;;;;;6.28;2.65;;;15.40;98.80;;;;;;5054466;28;20458;-63
2022/05/03 13:13:49;;;;;;;5.28;2.47;;;15.50;96.60;;;;;;5057948;28;20125;-64
2022/05/03 13:16:14;;;;;;;4.68;2.28;;;15.50;93.20;;;;;;5057450;28;20095;-63
2022/05/03 13:18:40;;;;;;;5.75;2.47;;;15.40;94.20;;;;;;5013339;28;20050;-64
2022/05/03 13:21:07;;;;;;;6.63;2.50;;;15.50;94.00;;;;;;5018436;28;20065;-63
2022/05/03 13:23:32;;;;;;;6.00;2.33;;;15.60;92.40;;;;;;5014875;28;20041;-64
2022/05/03 13:25:58;;;;;;;8.43;2.50;;;15.70;90.60;;;;;;5032300;28;20111;-64
2022/05/03 13:28:23;;;;;;;7.13;2.63;;;15.70;87.60;;;;;;5032690;28;20136;-64
2022/05/03 13:30:50;;;;;;;5.18;2.20;;;15.80;88.00;;;;;;5032042;28;20145;-63
2022/05/03 13:33:16;;;;;;;7.35;2.50;;;15.90;84.20;;;;;;5033018;28;20049;-63